サントメ の空港の天気 - METARとTAF

サントメ国際空港 ( FPST / TMS ) - サントメ・プリンシペ サントメ
飛行場実況気象(Metar)
観測時間07/18 14:00 WAT (07/18 13:00 UTC)
風向・風速北 3m/s
視程10km以上
天気現象
少しの雲 雲底高度 610m
全天の8割程度の雲 雲底高度 1220m
気温28℃
湿度89%
気圧1013hPa
METARFPST 181300Z 35006KT 9999 FEW020 BKN040 28/26 Q1013 NOSIG
過去の天気等 Google飛行場航空写真 Wunderground天気予報

過去48時間のMETAR

飛行場予報(TAF)
データがありません